Time;durP1;ratioP1;P1;durP2;ratioP2;P2;SDS_P1;SDS_P2;PMS_P1;PMS_P2;Temp;Humidity;BMP_temperature;BMP_pressure;BME280_temperature;BME280_humidity;BME280_pressure;Samples;Min_cycle;Max_cycle;Signal;HPM_P1;HPM_P2
2021/01/27 00:02:13;;;;;;;22.43;8.87;;;;;;;-0.25;97.92;99454.94;4934137;28;20039;-74
2021/01/27 00:04:38;;;;;;;10.10;6.37;;;;;;;-0.64;97.53;99405.97;4928572;29;20031;-74
2021/01/27 00:07:04;;;;;;;22.10;9.27;;;;;;;-0.35;97.82;99457.66;4937163;29;20074;-68
2021/01/27 00:09:29;;;;;;;8.93;6.00;;;;;;;-0.26;97.67;99463.31;4934373;29;20422;-70
2021/01/27 00:11:56;;;;;;;9.33;6.27;;;;;;;-0.24;97.56;99464.28;4934324;29;20034;-70
2021/01/27 00:14:21;;;;;;;10.90;6.90;;;;;;;-0.33;97.49;99456.09;4934475;29;20028;-71
2021/01/27 00:16:46;;;;;;;8.97;6.20;;;;;;;-0.52;97.57;99404.22;4934111;29;20042;-72
2021/01/27 00:19:12;;;;;;;10.30;7.10;;;;;;;-0.25;97.21;99451.50;4934564;29;20023;-71
2021/01/27 00:21:38;;;;;;;10.27;5.73;;;;;;;-0.45;97.90;99433.34;4933919;29;20031;-71
2021/01/27 00:24:04;;;;;;;39.83;30.13;;;;;;;-0.56;98.52;99408.97;4933483;29;20040;-72
2021/01/27 00:26:29;;;;;;;9.27;6.20;;;;;;;-0.42;98.49;99442.84;4934285;29;20035;-72
2021/01/27 00:28:54;;;;;;;20.60;15.83;;;;;;;-0.38;98.60;99439.72;4933871;29;20039;-73
2021/01/27 00:31:20;;;;;;;15.80;12.87;;;;;;;-0.39;98.47;99437.97;4934532;29;20024;-72
2021/01/27 00:33:46;;;;;;;36.57;23.33;;;;;;;-0.39;98.88;99443.91;4934489;29;20031;-74
2021/01/27 00:36:11;;;;;;;16.20;12.83;;;;;;;-0.45;98.56;99448.56;4934411;28;20042;-71
2021/01/27 00:38:36;;;;;;;7.93;4.23;;;;;;;-0.68;98.92;99434.44;4934318;29;20031;-73
2021/01/27 00:41:02;;;;;;;15.87;7.33;;;;;;;-0.45;99.42;99463.78;4934150;29;20040;-71
2021/01/27 00:43:28;;;;;;;9.43;5.40;;;;;;;-0.48;99.28;99467.81;4933923;29;20476;-71
2021/01/27 00:45:54;;;;;;;9.20;5.33;;;;;;;-0.43;99.19;99469.84;4934195;29;20035;-71
2021/01/27 00:48:20;;;;;;;13.23;7.20;;;;;;;-0.34;98.63;99456.88;4934193;29;20392;-70
2021/01/27 00:50:46;;;;;;;8.90;5.03;;;;;;;-0.60;98.32;99407.91;4933744;29;20035;-71
2021/01/27 00:53:12;;;;;;;6.80;4.73;;;;;;;-0.38;98.72;99434.66;4934064;29;20035;-71
2021/01/27 00:55:37;;;;;;;11.20;8.53;;;;;;;-0.43;98.44;99391.25;4934123;29;20038;-74
2021/01/27 00:58:03;;;;;;;7.63;6.10;;;;;;;-0.24;97.72;99418.63;4933972;29;20398;-74
2021/01/27 01:00:40;;;;;;;10.70;7.60;;;;;;;-0.27;97.68;99410.84;4933824;29;20114;-73
2021/01/27 01:03:07;;;;;;;7.77;5.50;;;;;;;-0.37;98.00;99398.38;4947807;29;20032;-71
2021/01/27 01:05:39;;;;;;;7.57;5.40;;;;;;;-0.40;98.65;99415.91;4948128;29;20035;-72
2021/01/27 01:08:06;;;;;;;6.10;4.30;;;;;;;-0.48;98.98;99405.28;4933801;29;20082;-69
2021/01/27 01:10:36;;;;;;;6.23;4.53;;;;;;;-0.68;98.53;99369.41;4933865;29;20032;-71
2021/01/27 01:13:04;;;;;;;7.60;4.80;;;;;;;-0.64;98.68;99377.22;4933397;29;20035;-71
2021/01/27 01:15:30;;;;;;;13.90;9.73;;;;;;;-0.36;98.61;99415.34;4933622;29;20036;-72
2021/01/27 01:17:56;;;;;;;8.30;5.30;;;;;;;-0.51;98.76;99382.28;4933593;29;20422;-73
2021/01/27 01:20:21;;;;;;;6.40;4.53;;;;;;;-0.51;98.93;99400.03;4933530;29;20517;-75
2021/01/27 01:22:53;;;;;;;7.53;4.83;;;;;;;-0.52;99.47;99409.28;4934026;29;20122;-75
2021/01/27 01:25:21;;;;;;;5.77;3.87;;;;;;;-0.61;99.63;99402.75;4931424;29;20521;-71
2021/01/27 01:27:47;;;;;;;6.33;4.10;;;;;;;-0.58;100.00;99401.28;4933571;29;20110;-71
2021/01/27 01:30:16;;;;;;;6.27;4.07;;;;;;;-0.48;99.78;99405.28;4933366;29;20031;-71
2021/01/27 01:32:42;;;;;;;7.72;4.78;;;;;;;-0.50;99.97;99405.19;4933434;29;20031;-72
2021/01/27 01:35:09;;;;;;;8.50;5.07;;;;;;;-0.55;99.54;99391.34;4936631;29;20115;-70
2021/01/27 01:37:35;;;;;;;6.60;4.43;;;;;;;-0.50;99.82;99414.44;4937385;29;20124;-74
2021/01/27 01:40:05;;;;;;;7.33;5.13;;;;;;;-0.42;99.65;99409.88;4937451;29;20134;-69
2021/01/27 01:42:31;;;;;;;28.80;22.80;;;;;;;-0.54;99.37;99388.00;4937146;29;20027;-68
2021/01/27 01:44:58;;;;;;;7.83;6.03;;;;;;;-0.56;99.67;99382.00;4937393;29;20024;-71
2021/01/27 01:47:24;;;;;;;6.13;4.00;;;;;;;-0.50;99.98;99392.53;4937055;29;20028;-66
2021/01/27 01:49:49;;;;;;;6.47;4.03;;;;;;;-0.56;99.95;99381.09;4937246;29;20553;-70
2021/01/27 01:52:15;;;;;;;6.23;4.50;;;;;;;-0.48;99.67;99390.06;4937116;29;20027;-68
2021/01/27 01:54:46;;;;;;;6.43;4.07;;;;;;;-0.64;100.00;99374.69;4937101;29;20095;-69
2021/01/27 01:57:25;;;;;;;7.90;5.50;;;;;;;-0.52;100.00;99375.47;4936009;29;20039;-71
2021/01/27 02:00:07;;;;;;;10.88;7.40;;;;;;;-0.58;99.89;99370.88;4936793;29;20063;-71
2021/01/27 02:02:34;;;;;;;11.73;8.67;;;;;;;-0.63;100.00;99369.69;4936930;29;20039;-70
2021/01/27 02:05:07;;;;;;;26.73;18.70;;;;;;;-0.53;100.00;99366.09;4937415;29;20027;-81
2021/01/27 02:07:33;;;;;;;16.27;8.70;;;;;;;-0.56;100.00;99369.31;4935520;29;20111;-78
2021/01/27 02:09:59;;;;;;;52.50;18.90;;;;;;;-0.46;99.98;99364.81;4936619;29;20111;-78
2021/01/27 02:13:04;;;;;;;12.33;9.03;;;;;;;-0.46;99.79;99354.66;4936836;29;20039;-82
2021/01/27 02:15:35;;;;;;;5.73;3.27;;;;;;;-0.63;100.00;99353.63;4972903;28;20043;-81
2021/01/27 02:18:28;;;;;;;6.80;4.00;;;;;;;-0.52;100.00;99356.03;4972877;28;20037;-72
2021/01/27 02:21:17;;;;;;;9.10;5.30;;;;;;;-0.66;100.00;99357.72;4956129;28;20050;-84
2021/01/27 02:23:42;;;;;;;12.33;9.37;;;;;;;-0.55;100.00;99376.16;4972559;28;20086;-79
2021/01/27 02:26:32;;;;;;;9.03;4.73;;;;;;;-0.56;100.00;99376.91;4972476;28;20472;-81
2021/01/27 02:29:35;;;;;;;7.53;4.27;;;;;;;-0.50;100.00;99392.53;4972098;28;20061;-82
2021/01/27 02:32:12;;;;;;;6.90;4.80;;;;;;;-0.44;99.92;99388.63;4956053;28;20031;-79
2021/01/27 02:34:57;;;;;;;6.80;3.63;;;;;;;-0.72;99.61;99336.19;4972406;28;20094;-81
2021/01/27 02:38:01;;;;;;;10.10;6.97;;;;;;;-0.46;99.93;99380.03;4972049;28;20038;-79
2021/01/27 02:40:55;;;;;;;6.70;4.67;;;;;;;-0.41;99.61;99371.03;4910818;29;20056;-80
2021/01/27 02:43:28;;;;;;;17.90;14.43;;;;;;;-0.46;99.51;99359.75;4850664;29;20046;-77
2021/01/27 02:46:23;;;;;;;27.20;18.40;;;;;;;-0.35;98.95;99371.44;4858014;29;20082;-76
2021/01/27 02:49:00;;;;;;;19.27;8.67;;;;;;;-0.41;98.85;99396.41;4828569;29;20047;-79
2021/01/27 02:51:58;;;;;;;31.43;21.50;;;;;;;-0.32;98.90;99397.00;4817090;29;20732;-77
2021/01/27 02:54:31;;;;;;;13.30;10.67;;;;;;;-0.40;98.93;99388.91;4786712;29;20054;-77
2021/01/27 02:57:16;;;;;;;14.70;11.97;;;;;;;-0.28;98.60;99405.69;4786299;30;20430;-81
2021/01/27 02:59:45;;;;;;;8.73;6.20;;;;;;;-0.48;98.77;99392.63;4785847;29;20051;-77
2021/01/27 03:02:26;;;;;;;6.23;4.17;;;;;;;-0.24;98.54;99416.09;4785868;29;20554;-77
2021/01/27 03:05:17;;;;;;;6.97;3.60;;;;;;;-0.30;98.20;99422.44;4785860;30;20119;-75
2021/01/27 03:07:47;;;;;;;7.07;3.40;;;;;;;-0.32;98.63;99427.44;4785726;29;20043;-77
2021/01/27 03:10:26;;;;;;;6.00;3.50;;;;;;;-0.40;98.45;99433.66;4785794;30;20043;-77
2021/01/27 03:12:52;;;;;;;7.90;3.55;;;;;;;-0.28;98.42;99442.03;4785864;30;20115;-76
2021/01/27 03:15:19;;;;;;;7.10;3.50;;;;;;;-0.29;98.17;99447.03;4785803;30;20076;-76
2021/01/27 03:17:49;;;;;;;7.37;4.40;;;;;;;-0.39;98.51;99437.97;4811487;29;20039;-76
2021/01/27 03:20:21;;;;;;;10.55;4.18;;;;;;;-0.36;98.43;99453.38;4847530;29;20037;-81
2021/01/27 03:22:56;;;;;;;4.97;3.17;;;;;;;-0.38;98.85;99467.63;4877176;29;20132;-77
2021/01/27 03:25:30;;;;;;;8.10;4.90;;;;;;;-0.38;99.30;99465.94;4868064;29;20132;-76
2021/01/27 03:28:05;;;;;;;6.83;4.43;;;;;;;-0.37;99.06;99469.38;4895679;29;20142;-77
2021/01/27 03:30:32;;;;;;;38.00;29.77;;;;;;;-0.29;98.64;99469.84;4895624;29;20188;-76
2021/01/27 03:33:08;;;;;;;7.07;4.80;;;;;;;-0.33;98.24;99456.09;4879890;29;20045;-76
2021/01/27 03:35:47;;;;;;;7.50;5.03;;;;;;;-0.39;98.44;99463.31;4895267;29;20551;-77
2021/01/27 03:38:21;;;;;;;6.05;2.78;;;;;;;-0.40;98.53;99459.00;4895578;29;20048;-80
2021/01/27 03:40:51;;;;;;;7.13;5.40;;;;;;;-0.41;98.96;99464.88;4895090;29;20048;-77
2021/01/27 03:43:28;;;;;;;18.35;12.80;;;;;;;-0.36;99.11;99453.38;4895611;29;20039;-77
2021/01/27 03:46:18;;;;;;;6.20;4.10;;;;;;;-0.41;98.61;99450.53;4934878;29;20533;-77
2021/01/27 03:48:50;;;;;;;4.87;2.70;;;;;;;-0.59;99.39;99452.75;4971700;28;20131;-76
2021/01/27 03:51:16;;;;;;;3.80;2.50;;;;;;;-0.46;99.58;99456.09;4971348;28;20077;-77
2021/01/27 03:53:43;;;;;;;4.80;2.73;;;;;;;-0.52;99.28;99456.59;4971306;28;20043;-77
2021/01/27 03:56:47;;;;;;;32.80;11.73;;;;;;;-0.42;99.77;99473.28;4984342;28;20045;-78
2021/01/27 03:59:13;;;;;;;4.77;2.80;;;;;;;-0.48;99.29;99472.88;4974313;28;20050;-80
2021/01/27 04:01:50;;;;;;;5.03;3.30;;;;;;;-0.58;99.50;99456.19;4976477;28;20046;-80
2021/01/27 04:04:15;;;;;;;5.63;2.70;;;;;;;-0.43;99.34;99477.44;4971091;28;20118;-82
2021/01/27 04:06:41;;;;;;;5.87;3.30;;;;;;;-0.43;98.89;99463.91;4971060;28;20647;-80
2021/01/27 04:09:08;;;;;;;77.53;44.40;;;;;;;-0.33;98.67;99474.72;4971023;28;20508;-81
2021/01/27 04:11:33;;;;;;;8.67;7.50;;;;;;;-0.28;98.36;99448.78;4954807;28;20042;-78
2021/01/27 04:13:59;;;;;;;29.67;26.10;;;;;;;-0.27;98.20;99423.53;4971051;28;20047;-83
2021/01/27 04:16:25;;;;;;;19.10;15.40;;;;;;;-0.28;98.26;99421.75;4954499;28;20650;-80
2021/01/27 04:18:50;;;;;;;80.60;57.87;;;;;;;-0.33;98.08;99418.06;4970754;28;20093;-80
2021/01/27 04:21:16;;;;;;;14.27;9.63;;;;;;;-0.23;97.66;99405.16;4970751;28;20559;-80
2021/01/27 04:23:41;;;;;;;26.73;23.93;;;;;;;-0.42;97.48;99370.19;4955017;28;20410;-83
2021/01/27 04:26:06;;;;;;;11.83;9.20;;;;;;;-0.04;96.94;99426.59;4946662;28;20051;-82
2021/01/27 04:28:32;;;;;;;26.03;23.33;;;;;;;-0.10;96.51;99436.38;4934590;29;20098;-86
2021/01/27 04:30:57;;;;;;;15.47;11.97;;;;;;;-0.14;96.63;99435.31;4949335;28;20031;-82
2021/01/27 04:33:23;;;;;;;6.03;3.40;;;;;;;-0.14;96.88;99434.44;4934628;29;20031;-81
2021/01/27 04:35:48;;;;;;;8.67;4.30;;;;;;;-0.12;96.42;99428.69;4934487;29;20045;-81
2021/01/27 04:38:14;;;;;;;11.00;4.93;;;;;;;-0.25;96.18;99400.78;4949133;28;20090;-81
2021/01/27 04:40:43;;;;;;;12.37;6.17;;;;;;;-0.30;95.91;99389.47;4934228;29;20106;-83
2021/01/27 04:43:22;;;;;;;10.32;4.10;;;;;;;0.10;95.82;99428.34;4949311;28;20490;-83
2021/01/27 04:46:01;;;;;;;4.50;2.45;;;;;;;0.10;95.25;99440.16;4934527;29;20398;-83
2021/01/27 04:48:40;;;;;;;15.53;12.33;;;;;;;0.06;95.63;99423.84;4934328;29;20035;-82
2021/01/27 04:51:13;;;;;;;12.88;10.15;;;;;;;-0.12;95.21;99412.59;4934360;29;20039;-82
2021/01/27 04:54:11;;;;;;;15.03;11.53;;;;;;;0.17;95.34;99444.81;4934227;29;20028;-81
2021/01/27 04:56:52;;;;;;;22.47;14.67;;;;;;;0.22;94.93;99447.66;4934866;29;20067;-86
2021/01/27 04:59:36;;;;;;;7.07;5.07;;;;;;;0.29;94.55;99467.56;4934340;29;20028;-86
2021/01/27 05:02:17;;;;;;;19.63;17.63;;;;;;;0.44;93.25;99482.84;4934259;29;20561;-83
2021/01/27 05:05:18;;;;;;;16.90;12.80;;;;;;;0.42;92.96;99479.34;4934334;29;20375;-81
2021/01/27 05:07:43;;;;;;;25.17;22.57;;;;;;;0.54;92.54;99487.72;4933148;28;20055;-82
2021/01/27 05:10:13;;;;;;;36.90;17.27;;;;;;;0.55;91.89;99476.78;4933866;29;20024;-80
2021/01/27 05:12:49;;;;;;;;;;;;;;;0.66;91.63;99482.50;4953685;28;20058;-79
2021/01/27 05:15:16;;;;;;;25.67;9.67;;;;;;;0.67;91.01;99486.78;4940640;29;19911;-81
2021/01/27 05:17:44;;;;;;;14.53;7.17;;;;;;;0.61;90.82;99482.22;4933864;29;20410;-77
2021/01/27 05:20:12;;;;;;;14.27;8.77;;;;;;;0.68;90.72;99493.63;4934142;29;20023;-83
2021/01/27 05:22:38;;;;;;;22.63;18.07;;;;;;;0.75;90.25;99505.03;4934221;29;20033;-81
2021/01/27 05:25:12;;;;;;;9.03;6.27;;;;;;;0.71;90.17;99515.78;4934141;29;20444;-79
2021/01/27 05:27:39;;;;;;;6.93;4.60;;;;;;;0.75;90.29;99513.53;4933862;29;20063;-79
2021/01/27 05:30:20;;;;;;;8.67;5.00;;;;;;;0.80;90.38;99494.34;4933770;29;20034;-80
2021/01/27 05:32:49;;;;;;;11.63;6.37;;;;;;;0.91;89.80;99484.84;4933796;29;20055;-78
2021/01/27 05:35:34;;;;;;;20.53;9.93;;;;;;;0.96;88.75;99485.13;4933846;29;20019;-78
2021/01/27 05:38:18;;;;;;;18.00;6.97;;;;;;;0.98;88.98;99488.63;4934054;29;20027;-76
2021/01/27 05:40:43;;;;;;;15.43;7.13;;;;;;;0.96;88.44;99480.91;4933593;29;20052;-87
2021/01/27 05:43:22;;;;;;;20.77;7.33;;;;;;;1.01;88.37;99498.97;4932630;29;20039;-84
2021/01/27 05:45:49;;;;;;;15.93;7.93;;;;;;;0.94;87.79;99486.69;4933771;29;20087;-85
2021/01/27 05:48:26;;;;;;;10.87;6.13;;;;;;;0.76;87.87;99433.09;4932503;28;20498;-85
2021/01/27 05:51:13;;;;;;;10.40;4.80;;;;;;;1.03;87.76;99460.94;4932146;29;20546;-79
2021/01/27 05:53:38;;;;;;;18.80;11.07;;;;;;;0.92;87.93;99465.38;4932061;29;20490;-81
2021/01/27 05:56:17;;;;;;;11.83;6.67;;;;;;;0.62;89.48;99478.00;4934053;28;20082;-88
2021/01/27 05:59:01;;;;;;;14.00;8.90;;;;;;;0.46;90.43;99472.00;4934023;29;20094;-81
2021/01/27 06:01:47;;;;;;;10.57;7.17;;;;;;;0.51;90.50;99471.41;4932408;28;20094;-81
2021/01/27 06:04:12;;;;;;;15.20;9.90;;;;;;;0.30;90.53;99418.56;4934089;29;20398;-81
2021/01/27 06:06:45;;;;;;;13.67;9.23;;;;;;;0.55;90.76;99458.09;4940742;29;20042;-81
2021/01/27 06:09:12;;;;;;;11.60;8.37;;;;;;;0.60;90.72;99449.13;4962254;28;20039;-82
2021/01/27 06:11:38;;;;;;;15.93;11.73;;;;;;;0.68;90.26;99452.97;4936063;28;20058;-76
2021/01/27 06:14:18;;;;;;;37.03;23.50;;;;;;;0.75;90.33;99447.47;4933359;29;20028;-77
2021/01/27 06:16:46;;;;;;;21.17;14.33;;;;;;;0.90;89.28;99450.06;4933646;29;20032;-78
2021/01/27 06:19:21;;;;;;;12.33;8.57;;;;;;;1.04;90.78;99458.47;4933614;29;20031;-80
2021/01/27 06:22:06;;;;;;;9.20;6.30;;;;;;;1.07;90.14;99445.97;4934511;28;20028;-76
2021/01/27 06:24:48;;;;;;;8.63;6.17;;;;;;;1.14;88.77;99452.25;4936777;28;20051;-82
2021/01/27 06:27:42;;;;;;;12.40;6.83;;;;;;;1.26;88.03;99465.69;4951359;28;20035;-78
2021/01/27 06:30:21;;;;;;;13.07;8.70;;;;;;;0.86;87.97;99431.97;4941076;28;20070;-77
2021/01/27 06:32:58;;;;;;;;;;;;;;;1.15;87.52;99479.44;4946053;28;20509;-72
2021/01/27 06:35:34;;;;;;;23.43;11.90;;;;;;;1.26;86.96;99472.47;4940087;29;19914;-75
2021/01/27 06:38:21;;;;;;;7.17;4.67;;;;;;;1.22;85.05;99463.78;4948139;28;20039;-76
2021/01/27 06:41:17;;;;;;;26.17;23.30;;;;;;;0.85;85.62;99461.63;4935442;29;20103;-70
2021/01/27 06:44:01;;;;;;;6.33;4.37;;;;;;;0.81;85.51;99464.75;4935050;28;20035;-72
2021/01/27 06:46:39;;;;;;;6.63;4.40;;;;;;;0.64;86.03;99451.03;4932486;29;20122;-72
2021/01/27 06:49:23;;;;;;;10.17;5.70;;;;;;;0.60;86.42;99451.66;4932450;29;20031;-75
2021/01/27 06:52:26;;;;;;;10.80;5.73;;;;;;;0.54;86.21;99453.81;4934988;29;20023;-71
2021/01/27 06:55:07;;;;;;;14.90;7.90;;;;;;;0.48;84.64;99447.56;4932402;29;20023;-72
2021/01/27 06:58:05;;;;;;;10.70;6.10;;;;;;;0.35;85.34;99421.34;4932485;29;20066;-75
2021/01/27 07:00:41;;;;;;;18.90;13.93;;;;;;;0.46;84.86;99430.47;4927749;29;20048;-74
2021/01/27 07:03:09;;;;;;;73.43;23.77;;;;;;;0.40;82.06;99420.84;4931516;29;20039;-74
2021/01/27 07:05:37;;;;;;;19.83;11.27;;;;;;;0.42;83.43;99434.50;4915999;29;20040;-75
2021/01/27 07:08:20;;;;;;;227.00;62.23;;;;;;;0.22;82.78;99404.50;4915943;29;20031;-76
2021/01/27 07:11:10;;;;;;;14.70;10.13;;;;;;;0.46;83.36;99441.53;4915183;29;20032;-75
2021/01/27 07:13:46;;;;;;;147.07;39.90;;;;;;;0.39;82.39;99433.47;4915152;29;20040;-75
2021/01/27 07:16:46;;;;;;;10.20;4.57;;;;;;;0.47;83.40;99445.84;4913821;29;20047;-75
2021/01/27 07:19:30;;;;;;;16.23;6.87;;;;;;;0.50;82.06;99442.59;4915988;29;20068;-75
2021/01/27 07:22:17;;;;;;;7.47;4.40;;;;;;;0.52;82.24;99435.06;4917410;29;20486;-75
2021/01/27 07:24:51;;;;;;;10.30;5.77;;;;;;;0.57;83.36;99423.53;4914760;29;20039;-75
2021/01/27 07:27:21;;;;;;;11.77;6.57;;;;;;;0.61;82.29;99421.25;4915888;29;20099;-76
2021/01/27 07:29:59;;;;;;;11.67;7.83;;;;;;;0.69;82.73;99418.31;4916101;29;20047;-75
2021/01/27 07:32:31;;;;;;;11.33;6.50;;;;;;;0.69;81.64;99416.63;4916189;29;20506;-74
2021/01/27 07:35:06;;;;;;;12.67;7.00;;;;;;;0.66;81.51;99424.09;4930292;28;20034;-72
2021/01/27 07:37:34;;;;;;;15.03;8.03;;;;;;;0.63;81.22;99439.13;4919969;29;20040;-72
2021/01/27 07:40:24;;;;;;;22.63;15.87;;;;;;;0.65;81.02;99450.28;4917407;29;20398;-72
2021/01/27 07:42:55;;;;;;;16.33;12.23;;;;;;;0.66;81.47;99453.66;4917935;29;20515;-73
2021/01/27 07:45:25;;;;;;;19.03;15.73;;;;;;;0.31;81.56;99397.44;4916394;29;20042;-73
2021/01/27 07:48:24;;;;;;;17.70;12.10;;;;;;;0.71;82.34;99452.28;4920225;29;20059;-72
2021/01/27 07:50:56;;;;;;;21.47;14.73;;;;;;;0.70;82.64;99451.41;4922040;29;20402;-73
2021/01/27 07:53:25;;;;;;;11.87;8.07;;;;;;;0.68;83.20;99458.06;4922515;29;20032;-73
2021/01/27 07:55:50;;;;;;;12.48;9.10;;;;;;;0.70;82.52;99474.28;4917508;29;20032;-72
2021/01/27 07:58:27;;;;;;;13.93;10.73;;;;;;;0.74;81.69;99476.22;4922285;29;20034;-73
2021/01/27 08:01:00;;;;;;;8.80;5.70;;;;;;;0.76;81.12;99481.38;4923330;29;20891;-74
2021/01/27 08:04:13;;;;;;;8.03;4.97;;;;;;;0.73;81.14;99484.59;4916990;29;20028;-73
2021/01/27 08:06:46;;;;;;;8.30;4.20;;;;;;;0.68;80.90;99473.28;4912289;29;20035;-73
2021/01/27 08:09:21;;;;;;;6.43;3.47;;;;;;;0.74;80.87;99485.50;4912425;29;20036;-71
2021/01/27 08:11:47;;;;;;;8.93;4.67;;;;;;;0.74;81.25;99481.28;4912592;29;20073;-71
2021/01/27 08:14:14;;;;;;;33.97;12.20;;;;;;;0.80;80.52;99480.78;4911960;29;21170;-71
2021/01/27 08:16:43;;;;;;;100.93;29.83;;;;;;;0.79;81.25;99496.81;4912464;29;20036;-71
2021/01/27 08:19:11;;;;;;;;;;;;;;;0.78;80.48;99495.91;4912807;29;20032;-71
2021/01/27 08:21:46;;;;;;;9.20;4.67;;;;;;;0.83;80.28;99513.13;4911077;29;19934;-71
2021/01/27 08:27:12;;;;;;;29.77;11.80;;;;;;;0.85;78.97;99504.81;4911132;29;20063;-71
2021/01/27 08:29:42;;;;;;;8.37;5.20;;;;;;;0.91;78.18;99519.53;4907929;29;20117;-72
2021/01/27 08:32:30;;;;;;;41.05;37.47;;;;;;;0.91;79.03;99511.91;4911182;29;20083;-71
2021/01/27 08:35:18;;;;;;;6.97;4.40;;;;;;;0.93;79.15;99508.66;4911714;29;20076;-71
2021/01/27 08:38:19;;;;;;;13.50;9.07;;;;;;;0.95;78.00;99506.25;4857488;29;20046;-71
2021/01/27 08:40:44;;;;;;;9.10;4.43;;;;;;;0.88;78.36;99506.66;4857755;29;20064;-71
2021/01/27 08:43:15;;;;;;;8.93;4.07;;;;;;;0.95;78.99;99519.81;4856942;29;20049;-72
2021/01/27 10:30:45;;;;;;;10.40;6.47;;;;;;;0.73;75.54;99558.28;4937389;29;20051;-71
2021/01/27 13:02:36;;;;;;;5.70;3.23;;;;;;;1.92;70.60;99598.34;4911023;29;20106;-73
2021/01/27 13:05:01;;;;;;;6.47;3.63;;;;;;;1.97;72.01;99600.25;4934692;29;20040;-73
2021/01/27 13:07:27;;;;;;;9.73;5.37;;;;;;;1.78;72.43;99584.84;4937538;29;20031;-73
2021/01/27 13:09:52;;;;;;;37.27;15.33;;;;;;;1.57;73.03;99591.19;4934021;29;20038;-72
2021/01/27 13:12:18;;;;;;;78.40;32.17;;;;;;;1.67;75.02;99603.69;4935001;29;20115;-73
2021/01/27 13:14:43;;;;;;;9.73;5.87;;;;;;;1.64;75.04;99598.41;4934010;29;20035;-74
2021/01/27 13:17:09;;;;;;;8.27;5.27;;;;;;;1.56;75.06;99564.91;4934086;29;20028;-73
2021/01/27 13:19:34;;;;;;;11.40;6.20;;;;;;;1.93;75.23;99617.03;4934046;29;20059;-76
2021/01/27 13:22:00;;;;;;;14.23;9.40;;;;;;;1.80;74.75;99612.03;4934069;29;20034;-74
2021/01/27 13:24:25;;;;;;;9.87;8.30;;;;;;;1.90;74.32;99605.00;4934294;29;20050;-78
2021/01/27 13:26:50;;;;;;;6.77;4.73;;;;;;;1.85;74.34;99605.53;4948677;28;20031;-73
2021/01/27 13:29:16;;;;;;;10.70;6.23;;;;;;;1.81;73.30;99588.31;4934151;29;20024;-74
2021/01/27 13:31:41;;;;;;;8.93;5.30;;;;;;;2.13;72.85;99623.28;4938116;29;20054;-76
2021/01/27 13:34:07;;;;;;;10.77;6.27;;;;;;;2.20;73.01;99616.84;4937902;29;20410;-73
2021/01/27 13:36:32;;;;;;;10.47;6.33;;;;;;;2.35;73.38;99617.72;4937830;29;20032;-74
2021/01/27 13:38:58;;;;;;;41.17;20.20;;;;;;;2.07;72.16;99600.03;4937901;29;20486;-74
2021/01/27 13:41:23;;;;;;;111.40;45.57;;;;;;;2.13;71.39;99615.66;4937544;29;20046;-73
2021/01/27 13:43:49;;;;;;;23.13;13.17;;;;;;;1.98;72.38;99596.94;4937369;29;20414;-73
2021/01/27 13:46:14;;;;;;;97.53;58.30;;;;;;;2.19;73.03;99628.69;4937437;29;20032;-77
2021/01/27 13:48:40;;;;;;;14.60;9.77;;;;;;;2.04;73.09;99613.44;4937759;29;20027;-74
2021/01/27 13:51:05;;;;;;;10.47;6.93;;;;;;;2.00;73.96;99625.91;4937420;29;20035;-76
2021/01/27 13:53:31;;;;;;;13.37;9.23;;;;;;;2.02;74.64;99635.41;4937659;29;20090;-74
2021/01/27 13:55:56;;;;;;;12.03;7.80;;;;;;;2.04;74.48;99635.47;4954200;29;20046;-74
2021/01/27 13:58:21;;;;;;;12.23;8.00;;;;;;;1.99;74.29;99634.34;4953700;28;20524;-71
2021/01/27 14:00:47;;;;;;;11.53;7.50;;;;;;;1.80;73.96;99581.50;4953800;29;20079;-76
2021/01/27 14:03:12;;;;;;;13.93;8.20;;;;;;;2.06;75.17;99611.84;4953784;28;20043;-74
2021/01/27 14:05:38;;;;;;;12.30;8.30;;;;;;;2.14;74.49;99625.00;4954159;29;20123;-72
2021/01/27 14:08:04;;;;;;;12.23;8.07;;;;;;;1.91;74.60;99636.44;4953972;29;20166;-73
2021/01/27 14:10:32;;;;;;;13.60;9.60;;;;;;;1.81;75.42;99631.59;4953935;29;20186;-73
2021/01/27 14:12:58;;;;;;;13.20;9.20;;;;;;;1.77;75.83;99636.50;4953490;29;20059;-74
2021/01/27 14:15:26;;;;;;;18.37;10.00;;;;;;;1.77;75.01;99622.94;4953647;29;20122;-72
2021/01/27 14:17:52;;;;;;;15.27;9.93;;;;;;;1.67;75.19;99603.69;4953615;29;20054;-74
2021/01/27 14:20:19;;;;;;;16.03;9.50;;;;;;;1.78;75.12;99628.09;4953121;28;20098;-77
2021/01/27 14:22:45;;;;;;;15.63;9.50;;;;;;;1.81;75.73;99641.75;4953661;28;20034;-73
2021/01/27 14:25:15;;;;;;;18.33;11.00;;;;;;;1.60;76.63;99634.66;4953474;29;20445;-75
2021/01/27 14:27:42;;;;;;;20.27;12.27;;;;;;;1.58;76.77;99632.03;4939391;29;20041;-71
2021/01/27 14:30:09;;;;;;;30.00;19.90;;;;;;;1.47;76.92;99630.50;4946911;29;20059;-74
2021/01/27 14:32:35;;;;;;;33.37;19.77;;;;;;;1.58;76.67;99623.50;4936439;29;20031;-73
2021/01/27 14:35:00;;;;;;;25.67;14.90;;;;;;;1.68;76.40;99623.22;4936857;29;20368;-71
2021/01/27 14:37:26;;;;;;;23.40;12.07;;;;;;;1.50;77.08;99622.19;4951264;29;20024;-71
2021/01/27 14:39:51;;;;;;;17.37;10.67;;;;;;;1.42;75.77;99622.59;4936849;29;20510;-71
2021/01/27 14:42:17;;;;;;;16.67;10.17;;;;;;;1.49;75.36;99625.50;4936235;29;20163;-72
2021/01/27 14:44:42;;;;;;;12.30;8.37;;;;;;;1.31;75.77;99603.28;4940279;29;20497;-71
2021/01/27 14:47:08;;;;;;;13.13;8.30;;;;;;;1.56;74.83;99640.34;4939194;28;20019;-72
2021/01/27 14:49:33;;;;;;;14.07;8.63;;;;;;;1.45;74.46;99638.03;4937568;29;20083;-72
2021/01/27 14:52:00;;;;;;;16.73;10.87;;;;;;;1.53;74.36;99638.47;4935877;29;20122;-71
2021/01/27 14:54:25;;;;;;;39.10;18.20;;;;;;;1.51;74.36;99627.34;4935787;29;20035;-72
2021/01/27 14:56:51;;;;;;;15.57;10.43;;;;;;;1.60;72.95;99638.06;4934927;29;20553;-71
2021/01/27 14:59:18;;;;;;;17.40;9.97;;;;;;;1.60;72.79;99635.50;4935659;29;20042;-72
2021/01/27 15:01:43;;;;;;;36.73;16.87;;;;;;;1.54;72.29;99626.66;4935615;29;20079;-71
2021/01/27 15:04:09;;;;;;;17.50;11.57;;;;;;;1.70;72.76;99644.56;4934791;29;20040;-71
2021/01/27 15:06:35;;;;;;;12.23;8.63;;;;;;;1.48;72.39;99652.59;4935146;29;20031;-71
2021/01/27 15:09:00;;;;;;;13.43;8.87;;;;;;;1.41;72.64;99647.94;4935158;29;20118;-71
2021/01/27 15:11:26;;;;;;;13.60;8.50;;;;;;;1.27;72.20;99670.88;4935169;29;20067;-71
2021/01/27 15:13:51;;;;;;;14.70;9.90;;;;;;;1.20;71.58;99652.59;4935548;29;20020;-71
2021/01/27 15:16:17;;;;;;;13.63;8.93;;;;;;;1.19;71.29;99636.47;4934933;28;20028;-71
2021/01/27 15:18:43;;;;;;;13.30;8.37;;;;;;;1.05;73.54;99658.50;4935127;29;20031;-71
2021/01/27 15:21:08;;;;;;;13.00;8.23;;;;;;;1.12;73.52;99659.75;4935175;29;20027;-71
2021/01/27 15:23:34;;;;;;;13.80;8.70;;;;;;;1.19;73.38;99668.63;4935372;29;20027;-71
2021/01/27 15:25:59;;;;;;;15.63;9.30;;;;;;;1.16;73.03;99665.91;4934834;29;20036;-72
2021/01/27 15:28:25;;;;;;;14.20;8.70;;;;;;;1.33;73.29;99677.97;4934057;28;20054;-72
2021/01/27 15:30:51;;;;;;;17.10;10.77;;;;;;;1.23;71.60;99633.31;4941219;29;20078;-69
2021/01/27 15:33:16;;;;;;;14.27;10.37;;;;;;;1.55;70.28;99671.66;4937027;28;20031;-72
2021/01/27 15:35:42;;;;;;;13.67;9.43;;;;;;;1.65;70.67;99673.97;4934725;29;20032;-72
2021/01/27 15:38:11;;;;;;;12.90;8.73;;;;;;;1.71;69.70;99676.88;4939065;29;20433;-70
2021/01/27 15:40:37;;;;;;;;;;;;;;;1.67;70.20;99681.66;4934881;29;20128;-71
2021/01/27 15:43:05;;;;;;;49.90;21.13;;;;;;;1.70;71.30;99681.88;4934191;29;20341;-72
2021/01/27 15:45:31;;;;;;;142.43;43.53;;;;;;;1.65;70.37;99689.22;4935524;29;20032;-72
2021/01/27 15:47:56;;;;;;;24.43;12.07;;;;;;;1.51;70.85;99685.84;4935101;29;20106;-71
2021/01/27 15:50:22;;;;;;;16.27;9.87;;;;;;;1.44;70.40;99688.81;4935045;29;20039;-72
2021/01/27 15:52:49;;;;;;;21.70;15.87;;;;;;;1.57;70.73;99710.75;4934734;29;20055;-73
2021/01/27 15:55:15;;;;;;;20.23;16.17;;;;;;;1.24;70.25;99679.97;4935174;29;20079;-80
2021/01/27 15:57:40;;;;;;;29.90;26.67;;;;;;;0.73;71.68;99699.69;4935124;29;20031;-82
2021/01/27 16:00:10;;;;;;;19.50;17.37;;;;;;;0.75;71.31;99726.94;4935037;29;20043;-80
2021/01/27 16:02:36;;;;;;;11.73;8.82;;;;;;;0.63;72.75;99738.84;4934903;29;20038;-79
2021/01/27 16:05:02;;;;;;;13.13;10.27;;;;;;;0.85;72.38;99748.75;4935078;29;20122;-80
2021/01/27 16:07:28;;;;;;;14.47;9.80;;;;;;;0.94;71.94;99741.69;4934903;29;20498;-78
2021/01/27 16:09:53;;;;;;;14.70;9.77;;;;;;;1.16;71.51;99743.06;4934271;29;20055;-73
2021/01/27 16:12:19;;;;;;;24.30;16.40;;;;;;;0.85;71.00;99705.53;4934312;29;20398;-72